Time;durP1;ratioP1;P1;durP2;ratioP2;P2;SDS_P1;SDS_P2;PMS_P1;PMS_P2;Temp;Humidity;BMP_temperature;BMP_pressure;BME280_temperature;BME280_humidity;BME280_pressure;Samples;Min_cycle;Max_cycle;Signal;HPM_P1;HPM_P2
2021/10/13 00:01:22;;;;;;;;;;;;;;;16.10;63.52;100352.41;5011549;28;102188;-52
2021/10/13 00:03:49;;;;;;;;;;;;;;;16.09;63.78;100345.28;5006014;28;102336;-52
2021/10/13 00:06:15;;;;;;;;;;;;;;;16.10;63.71;100343.34;5011337;28;103449;-52
2021/10/13 00:08:42;;;;;;;;;;;;;;;16.09;63.82;100339.81;4992598;28;102291;-56
2021/10/13 00:11:10;;;;;;;;;;;;;;;16.09;64.10;100337.06;5010798;28;102154;-53
2021/10/13 00:13:36;;;;;;;;;;;;;;;16.09;63.82;100334.31;5004743;28;102495;-53
2021/10/13 00:16:04;;;;;;;;;;;;;;;16.09;64.04;100339.81;4994529;28;104238;-53
2021/10/13 00:18:30;;;;;;;;;;;;;;;16.08;64.20;100332.72;4986559;28;102379;-52
2021/10/13 00:20:56;;;;;;;;;;;;;;;16.09;64.25;100337.06;4991231;28;102217;-52
2021/10/13 00:23:22;;;;;;;;;;;;;;;16.10;64.07;100338.66;5012440;28;102706;-53
2021/10/13 00:25:50;;;;;;;;;;;;;;;16.09;64.09;100334.31;5013615;28;104025;-52
2021/10/13 00:28:16;;;;;;;;;;;;;;;16.10;63.65;100338.66;5013016;28;102538;-53
2021/10/13 00:30:42;;;;;;;;;;;;;;;16.10;63.90;100346.91;5008905;28;102162;-52
2021/10/13 00:33:08;;;;;;;;;;;;;;;16.10;63.62;100348.84;5005388;28;102210;-52
2021/10/13 00:35:35;;;;;;;;;;;;;;;16.09;64.08;100352.72;5003365;28;103906;-53
2021/10/13 00:38:01;;;;;;;;;;;;;;;16.08;63.59;100346.44;5003632;28;102104;-52
2021/10/13 00:40:29;;;;;;;;;;;;;;;16.09;63.97;100353.53;5001489;28;102192;-52
2021/10/13 00:42:57;;;;;;;;;;;;;;;16.10;63.63;100355.13;5016734;28;102509;-52
2021/10/13 00:45:23;;;;;;;;;;;;;;;16.10;63.64;100357.88;5008052;28;103883;-52
2021/10/13 00:47:49;;;;;;;;;;;;;;;16.10;63.67;100352.41;5012062;28;102513;-52
2021/10/13 00:50:15;;;;;;;;;;;;;;;16.08;63.70;100351.91;4991997;28;102493;-53
2021/10/13 00:52:42;;;;;;;;;;;;;;;16.10;64.08;100349.66;5011998;28;107128;-52
2021/10/13 00:55:10;;;;;;;;;;;;;;;16.09;63.69;100339.00;5012996;28;103861;-52
2021/10/13 00:57:36;;;;;;;;;;;;;;;16.10;63.90;100344.16;5007719;28;102660;-54
2021/10/13 01:00:05;;;;;;;;;;;;;;;16.10;63.86;100344.16;5008385;28;102671;-52
2021/10/13 01:02:32;;;;;;;;;;;;;;;16.09;63.76;100337.06;5015805;28;102287;-53
2021/10/13 01:05:09;;;;;;;;;;;;;;;16.09;63.74;100328.81;5012143;28;103939;-52
2021/10/13 01:07:38;;;;;;;;;;;;;;;16.10;63.74;100329.63;5011144;28;102261;-52
2021/10/13 01:10:08;;;;;;;;;;;;;;;16.09;63.74;100328.81;5014464;28;102211;-52
2021/10/13 01:12:45;;;;;;;;;;;;;;;16.08;63.87;100318.97;5014345;28;103327;-52
2021/10/13 01:15:17;;;;;;;;;;;;;;;16.10;63.88;100326.88;5012665;28;103848;-52
2021/10/13 01:17:49;;;;;;;;;;;;;;;16.09;64.11;100320.59;5003999;28;103013;-52
2021/10/13 01:20:25;;;;;;;;;;;;;;;16.11;64.01;100325.75;5007648;28;102494;-52
2021/10/13 01:23:17;;;;;;;;;;;;;;;16.12;64.17;100329.31;5003614;28;102794;-52
2021/10/13 01:25:48;;;;;;;;;;;;;;;16.10;63.77;100324.94;4982771;28;103690;-52
2021/10/13 01:28:16;;;;;;;;;;;;;;;16.09;63.97;100323.34;4982524;28;102409;-52
2021/10/13 01:30:44;;;;;;;;;;;;;;;16.10;63.64;100324.94;4992905;28;102931;-52
2021/10/13 01:33:15;;;;;;;;;;;;;;;16.10;63.59;100322.19;4994995;28;102294;-52
2021/10/13 01:35:43;;;;;;;;;;;;;;;16.09;64.03;100320.59;4994781;28;105149;-53
2021/10/13 01:38:13;;;;;;;;;;;;;;;16.09;63.66;100315.09;4995001;28;102333;-53
2021/10/13 01:40:39;;;;;;;;;;;;;;;16.10;64.15;100318.66;4989029;28;102245;-53
2021/10/13 01:43:06;;;;;;;;;;;;;;;16.09;64.10;100312.34;5012007;28;102680;-53
2021/10/13 01:45:34;;;;;;;;;;;;;;;16.09;63.83;100319.78;5012814;28;103894;-53
2021/10/13 01:48:01;;;;;;;;;;;;;;;16.08;63.97;100321.72;5012217;28;102238;-53
2021/10/13 01:50:28;;;;;;;;;;;;;;;16.08;63.84;100318.97;5014070;28;102245;-53
2021/10/13 01:52:55;;;;;;;;;;;;;;;16.09;63.74;100320.59;4999315;28;102638;-53
2021/10/13 01:55:24;;;;;;;;;;;;;;;16.09;64.08;100323.34;5014612;28;104198;-53
2021/10/13 01:57:54;;;;;;;;;;;;;;;16.09;64.21;100319.78;4999128;28;102647;-53
2021/10/13 02:00:21;;;;;;;;;;;;;;;16.09;63.85;100320.59;5012898;28;102082;-56
2021/10/13 02:02:49;;;;;;;;;;;;;;;16.09;64.26;100326.06;5011174;28;102229;-53
2021/10/13 02:05:15;;;;;;;;;;;;;;;16.09;63.70;100315.09;4991908;28;103887;-53
2021/10/13 02:07:43;;;;;;;;;;;;;;;16.09;63.79;100328.81;4996625;28;102051;-52
2021/10/13 02:10:11;;;;;;;;;;;;;;;16.10;63.75;100333.19;4996410;28;102171;-53
2021/10/13 02:12:38;;;;;;;;;;;;;;;16.09;63.82;100323.34;4996309;28;102633;-53
2021/10/13 02:15:06;;;;;;;;;;;;;;;16.09;64.02;100331.56;4983563;28;104236;-53
2021/10/13 02:17:33;;;;;;;;;;;;;;;16.10;64.21;100329.63;4994663;28;102980;-52
2021/10/13 02:20:01;;;;;;;;;;;;;;;16.07;63.81;100331.06;5009117;28;102075;-53
2021/10/13 02:22:29;;;;;;;;;;;;;;;16.09;64.10;100322.53;5023342;28;102401;-53
2021/10/13 02:24:55;;;;;;;;;;;;;;;16.10;64.33;100310.41;5009279;28;104184;-53
2021/10/13 02:27:24;;;;;;;;;;;;;;;16.09;64.33;100312.34;5000521;28;102781;-53
2021/10/13 02:29:50;;;;;;;;;;;;;;;16.08;63.96;100313.50;4991335;28;102756;-52
2021/10/13 02:32:16;;;;;;;;;;;;;;;16.09;64.17;100312.34;4990090;28;102545;-53
2021/10/13 02:34:43;;;;;;;;;;;;;;;16.09;64.15;100308.81;4994138;28;104014;-53
2021/10/13 02:37:10;;;;;;;;;;;;;;;16.09;64.27;100306.88;4983276;28;102534;-52
2021/10/13 02:39:37;;;;;;;;;;;;;;;16.10;63.74;100302.19;4994766;28;102721;-53
2021/10/13 02:42:03;;;;;;;;;;;;;;;16.10;64.41;100304.94;4987473;28;102405;-53
2021/10/13 02:44:29;;;;;;;;;;;;;;;16.08;64.36;100310.75;4994619;28;103933;-52
2021/10/13 02:46:59;;;;;;;;;;;;;;;16.09;64.17;100319.78;4989507;28;102282;-53
2021/10/13 02:49:29;;;;;;;;;;;;;;;16.08;63.93;100312.66;4996849;28;102130;-52
2021/10/13 02:52:01;;;;;;;;;;;;;;;16.08;64.39;100313.50;5018094;28;102812;-53
2021/10/13 02:54:32;;;;;;;;;;;;;;;16.09;64.29;100308.81;5016182;28;104009;-53
2021/10/13 02:57:01;;;;;;;;;;;;;;;16.09;64.17;100306.06;5016062;28;102173;-53
2021/10/13 02:59:32;;;;;;;;;;;;;;;16.09;63.97;100308.81;5009785;28;102364;-52
2021/10/13 03:02:01;;;;;;;;;;;;;;;16.07;64.28;100295.38;5016569;28;102496;-52
2021/10/13 03:04:30;;;;;;;;;;;;;;;16.08;63.85;100298.94;5013636;28;103954;-53
2021/10/13 03:06:59;;;;;;;;;;;;;;;16.09;64.30;100304.13;5015923;28;102017;-52
2021/10/13 03:09:28;;;;;;;;;;;;;;;16.08;63.98;100296.19;5018100;28;102066;-53
2021/10/13 03:11:58;;;;;;;;;;;;;;;16.08;63.96;100297.03;5020363;28;102147;-53
2021/10/13 03:14:26;;;;;;;;;;;;;;;16.08;63.97;100297.03;5021053;28;104175;-52
2021/10/13 03:16:53;;;;;;;;;;;;;;;16.08;63.94;100291.53;5020233;28;103317;-52
2021/10/13 03:19:21;;;;;;;;;;;;;;;16.08;64.45;100291.53;5014268;28;102047;-53
2021/10/13 03:21:47;;;;;;;;;;;;;;;16.06;63.97;100288.28;5015613;28;102248;-53
2021/10/13 03:24:14;;;;;;;;;;;;;;;16.08;63.87;100287.94;5016052;28;103944;-53
2021/10/13 03:26:44;;;;;;;;;;;;;;;16.09;63.80;100289.59;5016204;28;102817;-53
2021/10/13 03:29:12;;;;;;;;;;;;;;;16.07;63.88;100287.16;5015415;28;102359;-53
2021/10/13 03:31:38;;;;;;;;;;;;;;;16.06;63.95;100277.31;5015541;28;102255;-53
2021/10/13 03:34:04;;;;;;;;;;;;;;;16.08;64.07;100279.72;5012846;28;102708;-53
2021/10/13 03:36:36;;;;;;;;;;;;;;;16.07;64.50;100276.16;5017162;28;102165;-53
2021/10/13 03:39:03;;;;;;;;;;;;;;;16.07;64.33;100270.69;5015126;28;102262;-53
2021/10/13 03:41:29;;;;;;;;;;;;;;;16.06;64.45;100271.81;5016748;28;102135;-53
2021/10/13 03:43:55;;;;;;;;;;;;;;;16.07;63.84;100276.16;5008054;28;103954;-53
2021/10/13 03:46:23;;;;;;;;;;;;;;;16.07;64.00;100273.41;5010296;28;103672;-53
2021/10/13 03:48:50;;;;;;;;;;;;;;;16.06;64.02;100265.53;5016098;28;102169;-53
2021/10/13 03:51:16;;;;;;;;;;;;;;;16.07;64.40;100267.94;5017038;28;103357;-53
2021/10/13 03:53:42;;;;;;;;;;;;;;;16.08;64.31;100266.81;5014193;28;104012;-53
2021/10/13 03:56:08;;;;;;;;;;;;;;;16.07;64.35;100267.94;5006136;28;102715;-53
2021/10/13 03:58:35;;;;;;;;;;;;;;;16.07;64.44;100265.19;5001829;28;102291;-53
2021/10/13 04:01:01;;;;;;;;;;;;;;;16.07;64.39;100267.94;5016026;28;102144;-53
2021/10/13 04:03:28;;;;;;;;;;;;;;;16.07;63.88;100264.38;5012741;28;103746;-53
2021/10/13 04:05:55;;;;;;;;;;;;;;;16.07;64.25;100262.44;5012305;28;102168;-53
2021/10/13 04:08:21;;;;;;;;;;;;;;;16.07;64.07;100262.44;4997522;28;102136;-53
2021/10/13 04:10:47;;;;;;;;;;;;;;;16.07;63.95;100267.94;5016220;28;102363;-53
2021/10/13 04:13:13;;;;;;;;;;;;;;;16.07;63.97;100267.13;5011648;28;103829;-53
2021/10/13 04:15:40;;;;;;;;;;;;;;;16.07;64.36;100267.94;5014407;28;102493;-53
2021/10/13 04:18:06;;;;;;;;;;;;;;;16.06;64.49;100266.31;5017029;28;102139;-53
2021/10/13 04:20:34;;;;;;;;;;;;;;;16.07;64.20;100270.69;5012589;28;102617;-52
2021/10/13 04:23:00;;;;;;;;;;;;;;;16.07;63.99;100273.41;5002194;28;104039;-53
2021/10/13 04:25:27;;;;;;;;;;;;;;;16.06;64.04;100271.81;5015038;28;102421;-53
2021/10/13 04:27:53;;;;;;;;;;;;;;;16.06;64.03;100273.75;5015712;28;102281;-52
2021/10/13 04:30:19;;;;;;;;;;;;;;;16.06;64.04;100282.78;5014296;28;102321;-53
2021/10/13 04:32:45;;;;;;;;;;;;;;;16.06;64.56;100293.78;5013848;28;103938;-53
2021/10/13 04:35:11;;;;;;;;;;;;;;;16.06;64.08;100288.28;5014310;28;102891;-53
2021/10/13 04:37:39;;;;;;;;;;;;;;;16.06;64.08;100293.78;5015808;28;102076;-53
2021/10/13 04:40:06;;;;;;;;;;;;;;;16.08;64.21;100301.69;5015027;28;102559;-53
2021/10/13 04:42:34;;;;;;;;;;;;;;;16.06;64.45;100299.25;5014520;28;104175;-53
2021/10/13 04:45:00;;;;;;;;;;;;;;;16.06;64.45;100310.25;5013145;28;102337;-53
2021/10/13 04:47:26;;;;;;;;;;;;;;;16.07;63.96;100308.31;5001225;28;102369;-52
2021/10/13 04:49:52;;;;;;;;;;;;;;;16.05;64.50;100303.16;5009600;28;102197;-52
2021/10/13 04:52:19;;;;;;;;;;;;;;;16.07;64.49;100311.84;5015208;28;103757;-53
2021/10/13 04:54:47;;;;;;;;;;;;;;;16.06;64.31;100310.25;5012532;28;102245;-53
2021/10/13 04:57:13;;;;;;;;;;;;;;;16.06;64.04;100315.72;5012678;28;103303;-53
2021/10/13 04:59:39;;;;;;;;;;;;;;;16.07;64.04;100316.53;5009983;28;102462;-53
2021/10/13 05:02:05;;;;;;;;;;;;;;;16.05;64.49;100319.63;5012458;28;104142;-53
2021/10/13 05:04:31;;;;;;;;;;;;;;;16.06;64.27;100315.72;5012627;28;102729;-53
2021/10/13 05:06:57;;;;;;;;;;;;;;;16.06;64.60;100315.72;5013784;28;102974;-53
2021/10/13 05:09:23;;;;;;;;;;;;;;;16.06;64.11;100326.72;5000481;28;102243;-53
2021/10/13 05:11:51;;;;;;;;;;;;;;;16.07;64.37;100322.81;5014423;28;104030;-53
2021/10/13 05:14:17;;;;;;;;;;;;;;;16.07;64.08;100322.03;5014942;28;102054;-53
2021/10/13 05:16:43;;;;;;;;;;;;;;;16.06;64.63;100314.94;5012012;28;102826;-53
2021/10/13 05:19:10;;;;;;;;;;;;;;;16.07;64.16;100322.03;5011825;28;102637;-52
2021/10/13 05:21:36;;;;;;;;;;;;;;;16.06;64.19;100321.22;5011803;28;104304;-52
2021/10/13 05:24:06;;;;;;;;;;;;;;;16.06;64.32;100325.91;5015202;28;102317;-53
2021/10/13 05:26:32;;;;;;;;;;;;;;;16.07;64.25;100322.81;5005026;28;102488;-53
2021/10/13 05:29:00;;;;;;;;;;;;;;;16.06;64.47;100320.41;5015882;28;102413;-53
2021/10/13 05:31:26;;;;;;;;;;;;;;;16.07;64.61;100328.31;5014102;28;103849;-52
2021/10/13 05:33:52;;;;;;;;;;;;;;;16.07;64.20;100320.09;5013940;28;102404;-52
2021/10/13 05:36:18;;;;;;;;;;;;;;;16.06;64.67;100321.22;5009696;28;102134;-53
2021/10/13 05:38:45;;;;;;;;;;;;;;;16.07;64.49;100327.50;5013131;28;102859;-53
2021/10/13 05:41:11;;;;;;;;;;;;;;;16.08;64.21;100318.16;5016191;28;104095;-53
2021/10/13 05:43:38;;;;;;;;;;;;;;;16.07;64.20;100320.09;5008015;28;102734;-53
2021/10/13 05:46:05;;;;;;;;;;;;;;;16.07;64.39;100317.34;5014679;28;102531;-53
2021/10/13 05:48:31;;;;;;;;;;;;;;;16.07;64.66;100322.03;5015881;28;102175;-53
2021/10/13 05:50:57;;;;;;;;;;;;;;;16.07;64.35;100317.34;5015542;28;104095;-53
2021/10/13 05:53:23;;;;;;;;;;;;;;;16.07;64.70;100320.09;5019739;28;102655;-53
2021/10/13 05:55:50;;;;;;;;;;;;;;;16.08;64.79;100310.75;5017886;28;101979;-53
2021/10/13 05:58:18;;;;;;;;;;;;;;;16.07;64.63;100311.84;5018737;28;102250;-53
2021/10/13 06:00:45;;;;;;;;;;;;;;;16.08;64.37;100305.25;5010430;28;103915;-53
2021/10/13 06:03:12;;;;;;;;;;;;;;;16.08;64.32;100301.69;5006929;28;102301;-53
2021/10/13 06:05:40;;;;;;;;;;;;;;;16.08;64.63;100302.50;5015153;28;102451;-53
2021/10/13 06:08:07;;;;;;;;;;;;;;;16.08;64.42;100299.75;5008922;28;102286;-53
2021/10/13 06:10:33;;;;;;;;;;;;;;;16.08;64.68;100294.28;5007440;28;103899;-53
2021/10/13 06:12:59;;;;;;;;;;;;;;;16.08;64.63;100294.28;5011565;28;102916;-53
2021/10/13 06:15:30;;;;;;;;;;;;;;;16.07;64.30;100300.88;5016961;28;102488;-53
2021/10/13 06:17:56;;;;;;;;;;;;;;;16.07;64.71;100295.38;5016012;28;102517;-53
2021/10/13 06:20:24;;;;;;;;;;;;;;;16.09;64.36;100297.81;5014917;28;103942;-52
2021/10/13 06:22:53;;;;;;;;;;;;;;;16.08;64.63;100297.03;5015303;28;102522;-53
2021/10/13 06:25:20;;;;;;;;;;;;;;;16.07;64.71;100278.91;5010709;28;102255;-53
2021/10/13 06:27:46;;;;;;;;;;;;;;;16.07;64.30;100278.91;5016206;28;102378;-53
2021/10/13 06:30:12;;;;;;;;;;;;;;;16.08;64.69;100285.22;5015493;28;103830;-53
2021/10/13 06:32:39;;;;;;;;;;;;;;;16.08;64.47;100279.72;5016944;28;102308;-53
2021/10/13 06:35:06;;;;;;;;;;;;;;;16.07;64.79;100287.16;5016663;28;102122;-53
2021/10/13 06:37:33;;;;;;;;;;;;;;;16.07;64.59;100272.63;5015832;28;102254;-53
2021/10/13 06:39:59;;;;;;;;;;;;;;;16.07;64.77;100276.16;5015038;28;103938;-53
2021/10/13 06:42:26;;;;;;;;;;;;;;;16.07;64.53;100278.09;5016514;28;102612;-52
2021/10/13 06:44:52;;;;;;;;;;;;;;;16.07;64.25;100283.59;5014998;28;102191;-53
2021/10/13 06:47:18;;;;;;;;;;;;;;;16.05;64.60;100275.69;5020177;28;102664;-53
2021/10/13 06:49:44;;;;;;;;;;;;;;;16.06;64.74;100271.81;5014051;28;105019;-53
2021/10/13 06:52:10;;;;;;;;;;;;;;;16.07;64.40;100283.59;5016409;28;103263;-53
2021/10/13 06:54:38;;;;;;;;;;;;;;;16.05;64.32;100272.94;5015908;28;102711;-53
2021/10/13 06:57:04;;;;;;;;;;;;;;;16.06;64.42;100277.31;5014697;28;102708;-53
2021/10/13 06:59:31;;;;;;;;;;;;;;;16.07;64.30;100284.41;4983246;28;108894;-57
2021/10/13 07:01:57;;;;;;;;;;;;;;;16.06;64.58;100277.31;4994590;28;102063;-53
2021/10/13 07:04:24;;;;;;;;;;;;;;;16.05;64.79;100270.22;4992933;28;102171;-53
2021/10/13 07:06:50;;;;;;;;;;;;;;;16.06;64.23;100282.78;5019890;28;102230;-52
2021/10/13 07:09:19;;;;;;;;;;;;;;;16.06;64.37;100274.56;5015869;28;104044;-53
2021/10/13 07:11:53;;;;;;;;;;;;;;;16.05;64.82;100275.69;5014857;28;102407;-52
2021/10/13 07:14:19;;;;;;;;;;;;;;;16.05;64.37;100275.69;5012402;28;102234;-52
2021/10/13 07:16:45;;;;;;;;;;;;;;;16.06;64.59;100277.31;5010657;28;102754;-52
2021/10/13 07:19:11;;;;;;;;;;;;;;;16.05;64.18;100275.69;4990243;28;104048;-53
2021/10/13 07:21:38;;;;;;;;;;;;;;;16.05;64.69;100286.69;4994513;28;106507;-53
2021/10/13 07:24:04;;;;;;;;;;;;;;;16.05;64.38;100272.94;4993538;28;102331;-53
2021/10/13 07:26:33;;;;;;;;;;;;;;;16.04;64.41;100282.28;4995971;28;102123;-53
2021/10/13 07:29:01;;;;;;;;;;;;;;;16.05;64.81;100269.41;4996549;28;103860;-53
2021/10/13 07:31:27;;;;;;;;;;;;;;;16.05;64.40;100275.69;4996397;28;102196;-52
2021/10/13 07:33:54;;;;;;;;;;;;;;;16.04;64.33;100274.06;4995807;28;102280;-53
2021/10/13 07:36:20;;;;;;;;;;;;;;;16.04;64.41;100265.81;4994951;28;102356;-53
2021/10/13 07:38:46;;;;;;;;;;;;;;;16.05;64.63;100266.66;4995193;28;103956;-53
2021/10/13 07:41:13;;;;;;;;;;;;;;;16.04;64.43;100263.06;4998764;28;102754;-53
2021/10/13 07:43:39;;;;;;;;;;;;;;;16.04;64.77;100260.34;5003749;28;103691;-53
2021/10/13 07:46:07;;;;;;;;;;;;;;;16.05;64.76;100264.72;5010196;28;102207;-53
2021/10/13 07:48:33;;;;;;;;;;;;;;;16.04;64.29;100246.59;5012083;28;103886;-53
2021/10/13 07:51:01;;;;;;;;;;;;;;;16.04;64.79;100254.84;5017727;28;102776;-52
2021/10/13 07:53:28;;;;;;;;;;;;;;;16.04;64.72;100246.59;5018996;28;101992;-52
2021/10/13 07:55:54;;;;;;;;;;;;;;;16.03;64.83;100247.75;5019450;28;102075;-52
2021/10/13 07:58:21;;;;;;;;;;;;;;;16.03;64.53;100250.50;5014543;28;103867;-53
2021/10/13 08:00:47;;;;;;;;;;;;;;;16.04;64.34;100260.34;5016312;28;102143;-53
2021/10/13 08:03:14;;;;;;;;;;;;;;;16.04;64.46;100263.06;5014788;28;102075;-53
2021/10/13 08:05:41;;;;;;;;;;;;;;;16.03;64.55;100261.47;5015890;28;102112;-53
2021/10/13 08:08:07;;;;;;;;;;;;;;;16.04;64.93;100267.75;5013173;28;103847;-53
2021/10/13 08:10:33;;;;;;;;;;;;;;;16.04;64.37;100265.00;5014140;28;102098;-53
2021/10/13 08:12:59;;;;;;;;;;;;;;;16.04;64.92;100263.06;5010532;28;102769;-52
2021/10/13 08:15:26;;;;;;;;;;;;;;;16.04;64.77;100260.34;5009184;28;102391;-53
2021/10/13 08:17:53;;;;;;;;;;;;;;;16.04;64.84;100257.59;5014609;28;104018;-53
2021/10/13 08:20:20;;;;;;;;;;;;;;;16.04;64.83;100254.84;5014479;28;102165;-53
2021/10/13 08:22:48;;;;;;;;;;;;;;;16.05;64.39;100258.41;5013229;28;102291;-52
2021/10/13 08:25:15;;;;;;;;;;;;;;;16.05;64.73;100252.94;5009672;28;102145;-53
2021/10/13 08:27:41;;;;;;;;;;;;;;;16.04;64.36;100252.09;5012421;28;103199;-52
2021/10/13 08:30:08;;;;;;;;;;;;;;;16.04;64.82;100246.59;5006927;28;102655;-53
2021/10/13 08:32:34;;;;;;;;;;;;;;;16.04;64.70;100254.03;5007209;28;102988;-52
2021/10/13 08:35:02;;;;;;;;;;;;;;;16.04;64.82;100249.34;5010777;28;103793;-53
2021/10/13 08:37:29;;;;;;;;;;;;;;;16.04;64.76;100259.53;5010340;28;103950;-53
2021/10/13 08:39:55;;;;;;;;;;;;;;;16.04;64.58;100259.53;5015188;28;102169;-53
2021/10/13 08:42:22;;;;;;;;;;;;;;;16.04;64.41;100256.78;5011248;28;102428;-52
2021/10/13 08:44:48;;;;;;;;;;;;;;;16.04;64.47;100263.06;5013691;28;102661;-52
2021/10/13 08:47:14;;;;;;;;;;;;;;;16.04;64.84;100274.06;5009939;28;104496;-53
2021/10/13 08:49:41;;;;;;;;;;;;;;;16.04;64.96;100278.75;5007429;28;102523;-53
2021/10/13 08:52:08;;;;;;;;;;;;;;;16.04;64.95;100278.75;4994191;28;103187;-52
2021/10/13 08:54:36;;;;;;;;;;;;;;;16.04;64.67;100284.22;4993401;28;102494;-53
2021/10/13 08:57:14;;;;;;;;;;;;;;;16.03;64.83;100283.44;4996508;28;104128;-52
2021/10/13 08:59:41;;;;;;;;;;;;;;;16.04;64.66;100285.03;5014296;28;102434;-53
2021/10/13 09:02:08;;;;;;;;;;;;;;;16.03;64.62;100294.41;5008357;28;102385;-53
2021/10/13 09:04:34;;;;;;;;;;;;;;;16.03;64.74;100299.91;5011770;28;102190;-53
2021/10/13 09:07:01;;;;;;;;;;;;;;;16.03;64.83;100299.91;5009630;28;103927;-54
2021/10/13 09:09:27;;;;;;;;;;;;;;;16.03;64.84;100305.38;5005749;28;102241;-53
2021/10/13 09:11:56;;;;;;;;;;;;;;;16.03;64.66;100305.38;5012791;28;102174;-53
2021/10/13 09:14:24;;;;;;;;;;;;;;;16.03;64.58;100305.38;5011508;28;102129;-53
2021/10/13 09:16:54;;;;;;;;;;;;;;;16.03;64.89;100294.41;5010870;28;104071;-53
2021/10/13 09:19:22;;;;;;;;;;;;;;;16.03;64.83;100310.88;5010314;28;102075;-53
2021/10/13 09:21:49;;;;;;;;;;;;;;;16.03;64.75;100310.06;5007301;28;102330;-53
2021/10/13 09:24:15;;;;;;;;;;;;;;;16.03;64.89;100299.09;5006773;28;102273;-53
2021/10/13 09:26:44;;;;;;;;;;;;;;;16.02;64.62;100312.00;5009683;28;123165;-52
2021/10/13 09:29:11;;;;;;;;;;;;;;;16.03;64.41;100299.09;5002055;28;102272;-53
2021/10/13 09:31:38;;;;;;;;;;;;;;;16.03;64.42;100310.88;5009537;28;102249;-52
2021/10/13 09:34:05;;;;;;;;;;;;;;;16.01;64.50;100302.16;5005352;28;102255;-53
2021/10/13 09:36:33;;;;;;;;;;;;;;;16.02;64.88;100312.00;5006614;28;103904;-52
2021/10/13 09:39:03;;;;;;;;;;;;;;;16.02;64.40;100303.78;5005844;28;102183;-53
2021/10/13 09:41:30;;;;;;;;;;;;;;;16.03;64.47;100310.06;5008340;28;102124;-53
2021/10/13 09:44:11;;;;;;;;;;;;;;;16.01;64.57;100312.31;5012865;28;102220;-53
2021/10/13 09:46:39;;;;;;;;;;;;;;;16.02;64.75;100317.50;5008620;28;103906;-53
2021/10/13 09:49:05;;;;;;;;;;;;;;;16.01;64.91;100310.41;5009166;28;102195;-52
2021/10/13 09:51:35;;;;;;;;;;;;;;;16.01;64.33;100313.13;5009688;28;102501;-53
2021/10/13 09:54:05;;;;;;;;;;;;;;;16.01;64.87;100313.13;5011625;28;102493;-53
2021/10/13 09:56:32;;;;;;;;;;;;;;;16.01;64.37;100310.41;5009318;28;105329;-53
2021/10/13 09:59:06;;;;;;;;;;;;;;;16.00;64.75;100319.75;5009451;28;102237;-53
2021/10/13 10:01:34;;;;;;;;;;;;;;;16.01;64.79;100318.63;5011971;28;102164;-53
2021/10/13 10:04:01;;;;;;;;;;;;;;;16.00;64.73;100319.75;5012806;28;102260;-53
2021/10/13 10:06:28;;;;;;;;;;;;;;;16.01;64.87;100318.63;5010593;28;104025;-53
2021/10/13 10:08:58;;;;;;;;;;;;;;;16.01;64.42;100317.78;5004246;28;103301;-53
2021/10/13 10:11:26;;;;;;;;;;;;;;;16.01;64.82;100329.59;5011904;28;102293;-53
2021/10/13 10:13:52;;;;;;;;;;;;;;;16.01;64.69;100324.13;5008604;28;102619;-53
2021/10/13 10:16:25;;;;;;;;;;;;;;;16.01;64.34;100329.59;5009152;28;104123;-53
2021/10/13 10:18:51;;;;;;;;;;;;;;;15.99;64.42;100323.63;5007383;28;103582;-52
2021/10/13 10:21:20;;;;;;;;;;;;;;;16.00;64.95;100327.97;5002781;28;102381;-53
2021/10/13 10:23:47;;;;;;;;;;;;;;;16.00;64.79;100321.69;5009523;28;108034;-53
2021/10/13 10:26:29;;;;;;;;;;;;;;;16.01;64.41;100328.78;5004233;28;103711;-53
2021/10/13 10:28:57;;;;;;;;;;;;;;;16.00;64.38;100336.22;5012427;28;102363;-52
2021/10/13 10:31:37;;;;;;;;;;;;;;;15.99;64.93;100334.59;5010873;28;102599;-53
2021/10/13 10:34:07;;;;;;;;;;;;;;;16.00;64.48;100332.66;5011843;28;102226;-53
2021/10/13 10:37:03;;;;;;;;;;;;;;;16.00;64.99;100338.94;5004423;28;103941;-52
2021/10/13 10:39:45;;;;;;;;;;;;;;;15.99;64.53;100337.34;4995842;28;102167;-53
2021/10/13 10:42:11;;;;;;;;;;;;;;;16.00;65.04;100338.94;4988537;28;102927;-53
2021/10/13 10:44:45;;;;;;;;;;;;;;;15.99;64.63;100340.09;5000334;28;103066;-52
2021/10/13 10:47:13;;;;;;;;;;;;;;;16.00;64.92;100338.94;5007753;28;107695;-52
2021/10/13 10:49:57;;;;;;;;;;;;;;;16.00;64.45;100341.69;5013246;28;102721;-53
2021/10/13 10:52:26;;;;;;;;;;;;;;;16.00;64.77;100338.16;5015844;28;102250;-52
2021/10/13 10:54:53;;;;;;;;;;;;;;;16.01;64.93;100348.00;5018070;28;102486;-53
2021/10/13 10:57:29;;;;;;;;;;;;;;;16.01;64.71;100345.25;5013454;28;103696;-53
2021/10/13 10:59:55;;;;;;;;;;;;;;;16.00;64.91;100335.41;5017343;28;102060;-53
2021/10/13 11:02:22;;;;;;;;;;;;;;;16.01;64.47;100337.00;5017353;28;102241;-53
2021/10/13 11:04:59;;;;;;;;;;;;;;;16.00;64.92;100347.19;5014435;28;102614;-53
2021/10/13 11:07:27;;;;;;;;;;;;;;;16.01;64.49;100351.56;4993481;28;103596;-52
2021/10/13 11:09:59;;;;;;;;;;;;;;;16.00;64.51;100347.19;4992494;28;102182;-54
2021/10/13 11:12:25;;;;;;;;;;;;;;;16.00;64.81;100349.94;4990102;28;102081;-53
2021/10/13 11:15:06;;;;;;;;;;;;;;;16.00;64.65;100358.16;4996713;28;102545;-52
2021/10/13 11:17:32;;;;;;;;;;;;;;;16.01;64.47;100345.25;5009488;28;103816;-53
2021/10/13 11:20:06;;;;;;;;;;;;;;;16.00;65.01;100349.94;5015790;28;102471;-53
2021/10/13 11:22:33;;;;;;;;;;;;;;;16.00;64.98;100349.94;5016652;28;102326;-52
2021/10/13 11:25:00;;;;;;;;;;;;;;;16.00;64.85;100349.94;5015907;28;102617;-52
2021/10/13 11:27:26;;;;;;;;;;;;;;;15.99;64.49;100353.81;5016607;28;103938;-52
2021/10/13 11:29:52;;;;;;;;;;;;;;;16.00;64.81;100355.41;5016460;28;102481;-53
2021/10/13 11:32:18;;;;;;;;;;;;;;;16.01;64.83;100361.72;4998101;28;102365;-53
2021/10/13 11:34:58;;;;;;;;;;;;;;;16.01;64.57;100357.06;4988048;28;102448;-53
2021/10/13 11:37:25;;;;;;;;;;;;;;;16.01;64.97;100358.97;4989593;28;103959;-53
2021/10/13 11:39:53;;;;;;;;;;;;;;;16.00;64.49;100366.41;4988345;28;102433;-57
2021/10/13 11:42:19;;;;;;;;;;;;;;;16.00;64.47;100365.59;4980695;28;102454;-53
2021/10/13 11:44:47;;;;;;;;;;;;;;;16.00;64.72;100357.34;4983437;28;102550;-53
2021/10/13 11:47:13;;;;;;;;;;;;;;;16.00;64.79;100369.13;5004346;28;103905;-53
2021/10/13 11:49:52;;;;;;;;;;;;;;;15.99;64.44;100375.75;4984984;28;102134;-53
2021/10/13 11:52:18;;;;;;;;;;;;;;;15.99;65.08;100370.28;5009266;28;102379;-53
2021/10/13 11:54:44;;;;;;;;;;;;;;;16.00;64.45;100376.56;5010959;28;102284;-53
2021/10/13 11:57:13;;;;;;;;;;;;;;;16.00;64.60;100371.06;5004551;28;104006;-52
2021/10/13 11:59:39;;;;;;;;;;;;;;;15.99;64.99;100374.97;5009462;28;101979;-53
2021/10/13 12:02:09;;;;;;;;;;;;;;;15.99;64.81;100375.75;4980981;28;102172;-53
2021/10/13 12:04:43;;;;;;;;;;;;;;;16.00;65.02;100390.28;4996446;28;102454;-53
2021/10/13 12:07:14;;;;;;;;;;;;;;;15.99;64.67;100386.75;4993706;28;103661;-53
2021/10/13 12:09:44;;;;;;;;;;;;;;;15.97;64.70;100383.50;4995195;28;102117;-52
2021/10/13 12:12:13;;;;;;;;;;;;;;;15.99;64.62;100392.22;4995261;28;102040;-52
2021/10/13 12:14:39;;;;;;;;;;;;;;;15.99;64.73;100391.44;4998146;28;102758;-53
2021/10/13 12:17:20;;;;;;;;;;;;;;;15.98;64.95;100390.63;4995088;28;104151;-52
2021/10/13 12:19:46;;;;;;;;;;;;;;;15.99;64.49;100394.16;4979576;28;102069;-52
2021/10/13 12:22:12;;;;;;;;;;;;;;;15.98;64.97;100390.63;4996001;28;102680;-53
2021/10/13 12:24:39;;;;;;;;;;;;;;;15.98;64.63;100396.09;4996781;28;102317;-52
2021/10/13 12:27:08;;;;;;;;;;;;;;;15.98;64.43;100404.34;5007081;28;103750;-52
2021/10/13 12:29:39;;;;;;;;;;;;;;;15.98;64.52;100404.34;5018329;28;102044;-53
2021/10/13 12:32:15;;;;;;;;;;;;;;;15.98;64.75;100407.09;5005003;28;102146;-53